Terminal Aerodrome Forecast
Issued by NWS

Home | Current Version | Previous Version | Text Only | Print | Product List | Glossary On
Versions: 1 2 3 4 5 6 7 8 9 10 11 12 13 14
000
FTUS46 KMTR 292300 RRA
TAFOAK
TAF
KOAK 292345Z 3000/3106 29013KT P6SM FEW011 BKN200
     FM300400 30009KT P6SM SCT200
     FM300800 31005KT P6SM SCT011 BKN200
     FM301000 31005KT P6SM OVC008
     FM301800 28009KT P6SM SCT010 BKN200
     FM302100 28014KT P6SM SCT200
     FM310300 29009KT P6SM SCT200=

USA.gov is the U.S. government's official web portal to all federal, state and local government web resources and services.